sensor_id;sensor_type;location;lat;lon;timestamp;P1;durP1;ratioP1;P2;durP2;ratioP2
45206;SDS011;30950;53.086;21.576;2022-10-16T00:01:30;27.30;;;20.42;;
45206;SDS011;30950;53.086;21.576;2022-10-16T00:03:58;24.35;;;18.60;;
45206;SDS011;30950;53.086;21.576;2022-10-16T00:06:26;28.85;;;20.20;;
45206;SDS011;30950;53.086;21.576;2022-10-16T00:08:54;25.10;;;18.63;;
45206;SDS011;30950;53.086;21.576;2022-10-16T00:11:23;24.85;;;20.08;;
45206;SDS011;30950;53.086;21.576;2022-10-16T00:13:54;27.05;;;19.85;;
45206;SDS011;30950;53.086;21.576;2022-10-16T00:16:23;26.88;;;20.60;;
45206;SDS011;30950;53.086;21.576;2022-10-16T00:18:51;22.83;;;18.73;;
45206;SDS011;30950;53.086;21.576;2022-10-16T00:21:19;21.77;;;18.08;;
45206;SDS011;30950;53.086;21.576;2022-10-16T00:23:50;22.65;;;18.90;;
45206;SDS011;30950;53.086;21.576;2022-10-16T00:26:22;24.63;;;20.75;;
45206;SDS011;30950;53.086;21.576;2022-10-16T00:28:50;24.63;;;19.65;;
45206;SDS011;30950;53.086;21.576;2022-10-16T00:31:19;19.50;;;16.02;;
45206;SDS011;30950;53.086;21.576;2022-10-16T00:33:48;25.98;;;19.73;;
45206;SDS011;30950;53.086;21.576;2022-10-16T00:36:17;24.23;;;18.08;;
45206;SDS011;30950;53.086;21.576;2022-10-16T00:38:47;23.90;;;18.75;;
45206;SDS011;30950;53.086;21.576;2022-10-16T00:41:20;22.70;;;19.45;;
45206;SDS011;30950;53.086;21.576;2022-10-16T00:43:55;24.55;;;18.35;;
45206;SDS011;30950;53.086;21.576;2022-10-16T00:49:12;26.45;;;18.95;;
45206;SDS011;30950;53.086;21.576;2022-10-16T00:51:43;20.33;;;17.52;;
45206;SDS011;30950;53.086;21.576;2022-10-16T00:54:15;26.20;;;19.65;;
45206;SDS011;30950;53.086;21.576;2022-10-16T00:56:48;21.30;;;17.52;;
45206;SDS011;30950;53.086;21.576;2022-10-16T00:59:22;25.13;;;19.08;;
45206;SDS011;30950;53.086;21.576;2022-10-16T01:01:56;22.08;;;18.15;;
45206;SDS011;30950;53.086;21.576;2022-10-16T01:04:25;22.38;;;16.40;;
45206;SDS011;30950;53.086;21.576;2022-10-16T01:12:41;20.27;;;16.80;;
45206;SDS011;30950;53.086;21.576;2022-10-16T01:20:55;24.42;;;19.25;;
45206;SDS011;30950;53.086;21.576;2022-10-16T01:28:51;27.15;;;20.13;;
45206;SDS011;30950;53.086;21.576;2022-10-16T01:31:24;23.65;;;18.98;;
45206;SDS011;30950;53.086;21.576;2022-10-16T01:34:00;26.73;;;19.48;;
45206;SDS011;30950;53.086;21.576;2022-10-16T01:36:42;24.58;;;19.35;;
45206;SDS011;30950;53.086;21.576;2022-10-16T01:39:15;22.08;;;16.77;;
45206;SDS011;30950;53.086;21.576;2022-10-16T01:41:49;25.23;;;20.33;;
45206;SDS011;30950;53.086;21.576;2022-10-16T01:44:22;23.92;;;18.60;;
45206;SDS011;30950;53.086;21.576;2022-10-16T01:46:55;22.67;;;18.15;;
45206;SDS011;30950;53.086;21.576;2022-10-16T01:49:23;25.60;;;20.05;;
45206;SDS011;30950;53.086;21.576;2022-10-16T01:51:56;24.58;;;18.00;;
45206;SDS011;30950;53.086;21.576;2022-10-16T01:54:31;23.40;;;18.85;;
45206;SDS011;30950;53.086;21.576;2022-10-16T01:57:02;26.67;;;20.20;;
45206;SDS011;30950;53.086;21.576;2022-10-16T01:59:37;24.15;;;19.30;;
45206;SDS011;30950;53.086;21.576;2022-10-16T02:02:08;25.58;;;19.13;;
45206;SDS011;30950;53.086;21.576;2022-10-16T02:04:39;24.27;;;18.45;;
45206;SDS011;30950;53.086;21.576;2022-10-16T02:07:14;21.33;;;16.95;;
45206;SDS011;30950;53.086;21.576;2022-10-16T02:09:42;24.13;;;18.98;;
45206;SDS011;30950;53.086;21.576;2022-10-16T02:12:15;26.73;;;20.48;;
45206;SDS011;30950;53.086;21.576;2022-10-16T02:14:52;24.95;;;20.42;;
45206;SDS011;30950;53.086;21.576;2022-10-16T02:17:20;23.13;;;17.60;;
45206;SDS011;30950;53.086;21.576;2022-10-16T02:19:48;26.13;;;19.45;;
45206;SDS011;30950;53.086;21.576;2022-10-16T02:22:22;25.85;;;19.55;;
45206;SDS011;30950;53.086;21.576;2022-10-16T02:24:59;21.15;;;18.88;;
45206;SDS011;30950;53.086;21.576;2022-10-16T02:27:38;29.73;;;19.52;;
45206;SDS011;30950;53.086;21.576;2022-10-16T02:30:29;24.30;;;19.45;;
45206;SDS011;30950;53.086;21.576;2022-10-16T02:33:02;22.98;;;17.20;;
45206;SDS011;30950;53.086;21.576;2022-10-16T02:35:33;22.35;;;18.58;;
45206;SDS011;30950;53.086;21.576;2022-10-16T02:38:02;25.50;;;19.55;;
45206;SDS011;30950;53.086;21.576;2022-10-16T02:40:30;25.15;;;18.42;;
45206;SDS011;30950;53.086;21.576;2022-10-16T02:42:57;23.05;;;17.65;;
45206;SDS011;30950;53.086;21.576;2022-10-16T02:45:25;23.00;;;18.48;;
45206;SDS011;30950;53.086;21.576;2022-10-16T02:47:53;23.20;;;18.50;;
45206;SDS011;30950;53.086;21.576;2022-10-16T02:50:20;22.65;;;18.52;;
45206;SDS011;30950;53.086;21.576;2022-10-16T02:52:49;23.00;;;19.15;;
45206;SDS011;30950;53.086;21.576;2022-10-16T02:55:16;21.95;;;18.08;;
45206;SDS011;30950;53.086;21.576;2022-10-16T02:57:44;25.48;;;19.17;;
45206;SDS011;30950;53.086;21.576;2022-10-16T03:00:12;25.67;;;19.52;;
45206;SDS011;30950;53.086;21.576;2022-10-16T03:02:42;25.80;;;19.27;;
45206;SDS011;30950;53.086;21.576;2022-10-16T03:05:10;23.98;;;19.33;;
45206;SDS011;30950;53.086;21.576;2022-10-16T03:07:37;24.25;;;19.40;;
45206;SDS011;30950;53.086;21.576;2022-10-16T03:10:05;23.05;;;18.77;;
45206;SDS011;30950;53.086;21.576;2022-10-16T03:12:33;26.08;;;18.48;;
45206;SDS011;30950;53.086;21.576;2022-10-16T03:15:00;25.52;;;17.95;;
45206;SDS011;30950;53.086;21.576;2022-10-16T03:17:28;23.23;;;18.95;;
45206;SDS011;30950;53.086;21.576;2022-10-16T03:19:55;30.50;;;19.20;;
45206;SDS011;30950;53.086;21.576;2022-10-16T03:22:23;22.35;;;17.98;;
45206;SDS011;30950;53.086;21.576;2022-10-16T03:24:50;23.20;;;17.88;;
45206;SDS011;30950;53.086;21.576;2022-10-16T03:27:18;23.85;;;16.35;;
45206;SDS011;30950;53.086;21.576;2022-10-16T03:29:45;23.25;;;16.95;;
45206;SDS011;30950;53.086;21.576;2022-10-16T03:32:13;24.80;;;18.92;;
45206;SDS011;30950;53.086;21.576;2022-10-16T03:34:40;23.65;;;17.40;;
45206;SDS011;30950;53.086;21.576;2022-10-16T03:37:08;20.33;;;17.13;;
45206;SDS011;30950;53.086;21.576;2022-10-16T03:39:35;21.33;;;16.83;;
45206;SDS011;30950;53.086;21.576;2022-10-16T03:42:03;23.30;;;17.58;;
45206;SDS011;30950;53.086;21.576;2022-10-16T03:44:30;19.92;;;16.55;;
45206;SDS011;30950;53.086;21.576;2022-10-16T03:46:58;24.05;;;17.02;;
45206;SDS011;30950;53.086;21.576;2022-10-16T03:49:25;22.08;;;17.77;;
45206;SDS011;30950;53.086;21.576;2022-10-16T03:51:53;21.55;;;17.20;;
45206;SDS011;30950;53.086;21.576;2022-10-16T03:54:20;20.40;;;16.95;;
45206;SDS011;30950;53.086;21.576;2022-10-16T03:56:49;21.50;;;16.40;;
45206;SDS011;30950;53.086;21.576;2022-10-16T03:59:16;22.85;;;16.65;;
45206;SDS011;30950;53.086;21.576;2022-10-16T04:01:43;21.98;;;17.23;;
45206;SDS011;30950;53.086;21.576;2022-10-16T04:04:11;19.95;;;17.70;;
45206;SDS011;30950;53.086;21.576;2022-10-16T04:06:38;22.25;;;17.05;;
45206;SDS011;30950;53.086;21.576;2022-10-16T04:09:05;21.20;;;16.70;;
45206;SDS011;30950;53.086;21.576;2022-10-16T04:11:33;23.52;;;17.17;;
45206;SDS011;30950;53.086;21.576;2022-10-16T04:14:01;21.50;;;17.83;;
45206;SDS011;30950;53.086;21.576;2022-10-16T04:16:28;21.50;;;17.30;;
45206;SDS011;30950;53.086;21.576;2022-10-16T04:18:55;23.60;;;17.02;;
45206;SDS011;30950;53.086;21.576;2022-10-16T04:21:23;23.25;;;16.95;;
45206;SDS011;30950;53.086;21.576;2022-10-16T04:23:50;23.92;;;17.60;;
45206;SDS011;30950;53.086;21.576;2022-10-16T04:26:18;21.38;;;18.48;;
45206;SDS011;30950;53.086;21.576;2022-10-16T04:28:45;24.52;;;18.30;;
45206;SDS011;30950;53.086;21.576;2022-10-16T04:31:13;23.20;;;18.02;;
45206;SDS011;30950;53.086;21.576;2022-10-16T04:33:43;26.63;;;18.88;;
45206;SDS011;30950;53.086;21.576;2022-10-16T04:36:11;23.13;;;17.95;;
45206;SDS011;30950;53.086;21.576;2022-10-16T04:38:38;22.73;;;17.13;;
45206;SDS011;30950;53.086;21.576;2022-10-16T04:41:06;21.70;;;17.98;;
45206;SDS011;30950;53.086;21.576;2022-10-16T04:43:34;26.55;;;19.33;;
45206;SDS011;30950;53.086;21.576;2022-10-16T04:46:02;21.65;;;17.48;;
45206;SDS011;30950;53.086;21.576;2022-10-16T04:48:31;24.58;;;19.58;;
45206;SDS011;30950;53.086;21.576;2022-10-16T04:50:59;27.65;;;20.77;;
45206;SDS011;30950;53.086;21.576;2022-10-16T04:53:26;24.10;;;19.20;;
45206;SDS011;30950;53.086;21.576;2022-10-16T04:55:53;25.95;;;20.05;;
45206;SDS011;30950;53.086;21.576;2022-10-16T04:58:22;25.10;;;19.58;;
45206;SDS011;30950;53.086;21.576;2022-10-16T05:00:49;27.95;;;19.58;;
45206;SDS011;30950;53.086;21.576;2022-10-16T05:03:17;31.05;;;21.45;;
45206;SDS011;30950;53.086;21.576;2022-10-16T05:05:45;27.30;;;20.65;;
45206;SDS011;30950;53.086;21.576;2022-10-16T05:08:14;28.02;;;23.25;;
45206;SDS011;30950;53.086;21.576;2022-10-16T05:10:43;22.83;;;16.70;;
45206;SDS011;30950;53.086;21.576;2022-10-16T05:13:11;30.27;;;20.92;;
45206;SDS011;30950;53.086;21.576;2022-10-16T05:15:39;26.52;;;20.33;;
45206;SDS011;30950;53.086;21.576;2022-10-16T05:18:06;27.15;;;19.40;;
45206;SDS011;30950;53.086;21.576;2022-10-16T05:20:35;24.80;;;19.55;;
45206;SDS011;30950;53.086;21.576;2022-10-16T05:23:02;25.63;;;19.90;;
45206;SDS011;30950;53.086;21.576;2022-10-16T05:25:30;24.88;;;19.73;;
45206;SDS011;30950;53.086;21.576;2022-10-16T05:27:58;26.55;;;19.10;;
45206;SDS011;30950;53.086;21.576;2022-10-16T05:30:25;26.63;;;19.55;;
45206;SDS011;30950;53.086;21.576;2022-10-16T05:32:52;24.63;;;20.98;;
45206;SDS011;30950;53.086;21.576;2022-10-16T05:35:20;25.80;;;20.88;;
45206;SDS011;30950;53.086;21.576;2022-10-16T05:37:48;26.52;;;21.48;;
45206;SDS011;30950;53.086;21.576;2022-10-16T05:40:16;29.50;;;20.10;;
45206;SDS011;30950;53.086;21.576;2022-10-16T05:42:43;33.08;;;25.35;;
45206;SDS011;30950;53.086;21.576;2022-10-16T05:45:11;36.17;;;23.27;;
45206;SDS011;30950;53.086;21.576;2022-10-16T05:47:39;25.40;;;20.60;;
45206;SDS011;30950;53.086;21.576;2022-10-16T05:50:06;25.80;;;22.15;;
45206;SDS011;30950;53.086;21.576;2022-10-16T05:52:34;32.90;;;25.60;;
45206;SDS011;30950;53.086;21.576;2022-10-16T05:55:03;31.38;;;24.98;;
45206;SDS011;30950;53.086;21.576;2022-10-16T05:57:31;26.75;;;21.13;;
45206;SDS011;30950;53.086;21.576;2022-10-16T05:59:59;27.55;;;21.85;;
45206;SDS011;30950;53.086;21.576;2022-10-16T06:02:26;28.80;;;21.27;;
45206;SDS011;30950;53.086;21.576;2022-10-16T06:04:54;25.77;;;21.27;;
45206;SDS011;30950;53.086;21.576;2022-10-16T06:07:21;26.65;;;21.33;;
45206;SDS011;30950;53.086;21.576;2022-10-16T06:09:53;28.50;;;21.85;;
45206;SDS011;30950;53.086;21.576;2022-10-16T06:12:20;28.92;;;21.27;;
45206;SDS011;30950;53.086;21.576;2022-10-16T06:14:48;30.20;;;23.08;;
45206;SDS011;30950;53.086;21.576;2022-10-16T06:17:15;28.48;;;20.17;;
45206;SDS011;30950;53.086;21.576;2022-10-16T06:19:43;31.40;;;21.23;;
45206;SDS011;30950;53.086;21.576;2022-10-16T06:22:10;29.52;;;20.58;;
45206;SDS011;30950;53.086;21.576;2022-10-16T06:24:38;28.73;;;22.30;;
45206;SDS011;30950;53.086;21.576;2022-10-16T06:27:05;28.85;;;22.48;;
45206;SDS011;30950;53.086;21.576;2022-10-16T06:29:33;25.17;;;19.63;;
45206;SDS011;30950;53.086;21.576;2022-10-16T06:32:01;29.05;;;21.08;;
45206;SDS011;30950;53.086;21.576;2022-10-16T06:34:29;27.88;;;20.58;;
45206;SDS011;30950;53.086;21.576;2022-10-16T06:36:56;24.75;;;19.27;;
45206;SDS011;30950;53.086;21.576;2022-10-16T06:39:23;28.38;;;22.00;;
45206;SDS011;30950;53.086;21.576;2022-10-16T06:41:51;30.20;;;22.13;;
45206;SDS011;30950;53.086;21.576;2022-10-16T06:44:19;27.52;;;23.63;;
45206;SDS011;30950;53.086;21.576;2022-10-16T06:46:46;28.30;;;21.75;;
45206;SDS011;30950;53.086;21.576;2022-10-16T06:49:14;25.73;;;19.60;;
45206;SDS011;30950;53.086;21.576;2022-10-16T06:51:48;25.40;;;20.58;;
45206;SDS011;30950;53.086;21.576;2022-10-16T06:54:15;28.85;;;20.65;;
45206;SDS011;30950;53.086;21.576;2022-10-16T06:56:44;25.42;;;19.30;;
45206;SDS011;30950;53.086;21.576;2022-10-16T06:59:11;26.58;;;19.25;;
45206;SDS011;30950;53.086;21.576;2022-10-16T07:01:39;26.30;;;19.70;;
45206;SDS011;30950;53.086;21.576;2022-10-16T07:04:06;26.27;;;20.02;;
45206;SDS011;30950;53.086;21.576;2022-10-16T07:06:34;23.08;;;18.98;;
45206;SDS011;30950;53.086;21.576;2022-10-16T07:09:03;26.83;;;19.02;;
45206;SDS011;30950;53.086;21.576;2022-10-16T07:11:32;22.60;;;18.35;;
45206;SDS011;30950;53.086;21.576;2022-10-16T07:14:00;25.13;;;18.88;;
45206;SDS011;30950;53.086;21.576;2022-10-16T07:16:29;25.55;;;19.52;;
45206;SDS011;30950;53.086;21.576;2022-10-16T07:19:00;24.90;;;18.13;;
45206;SDS011;30950;53.086;21.576;2022-10-16T07:21:30;25.23;;;19.20;;
45206;SDS011;30950;53.086;21.576;2022-10-16T07:24:03;25.60;;;18.83;;
45206;SDS011;30950;53.086;21.576;2022-10-16T07:26:37;23.75;;;17.83;;
45206;SDS011;30950;53.086;21.576;2022-10-16T07:29:16;25.20;;;17.20;;
45206;SDS011;30950;53.086;21.576;2022-10-16T07:31:46;20.30;;;16.98;;
45206;SDS011;30950;53.086;21.576;2022-10-16T07:34:15;22.20;;;17.10;;
45206;SDS011;30950;53.086;21.576;2022-10-16T07:36:44;23.95;;;18.58;;
45206;SDS011;30950;53.086;21.576;2022-10-16T07:39:14;23.05;;;17.05;;
45206;SDS011;30950;53.086;21.576;2022-10-16T07:41:41;21.92;;;16.80;;
45206;SDS011;30950;53.086;21.576;2022-10-16T07:44:08;22.13;;;16.85;;
45206;SDS011;30950;53.086;21.576;2022-10-16T07:46:36;23.13;;;16.95;;
45206;SDS011;30950;53.086;21.576;2022-10-16T07:49:03;22.17;;;17.30;;
45206;SDS011;30950;53.086;21.576;2022-10-16T07:51:31;21.15;;;16.67;;
45206;SDS011;30950;53.086;21.576;2022-10-16T07:53:59;23.45;;;17.67;;
45206;SDS011;30950;53.086;21.576;2022-10-16T07:56:26;22.20;;;17.55;;
45206;SDS011;30950;53.086;21.576;2022-10-16T07:58:54;19.15;;;16.90;;
45206;SDS011;30950;53.086;21.576;2022-10-16T08:01:23;23.10;;;16.70;;
45206;SDS011;30950;53.086;21.576;2022-10-16T08:03:50;19.10;;;17.00;;
45206;SDS011;30950;53.086;21.576;2022-10-16T08:06:20;21.02;;;16.30;;
45206;SDS011;30950;53.086;21.576;2022-10-16T08:08:54;21.42;;;16.42;;
45206;SDS011;30950;53.086;21.576;2022-10-16T08:11:22;20.05;;;15.05;;
45206;SDS011;30950;53.086;21.576;2022-10-16T08:13:50;19.50;;;15.73;;
45206;SDS011;30950;53.086;21.576;2022-10-16T08:16:18;18.23;;;14.68;;
45206;SDS011;30950;53.086;21.576;2022-10-16T08:18:45;20.02;;;15.68;;
45206;SDS011;30950;53.086;21.576;2022-10-16T08:21:14;19.25;;;15.93;;
45206;SDS011;30950;53.086;21.576;2022-10-16T08:23:47;21.70;;;15.32;;
45206;SDS011;30950;53.086;21.576;2022-10-16T08:26:23;18.80;;;14.40;;
45206;SDS011;30950;53.086;21.576;2022-10-16T08:28:53;19.67;;;15.40;;
45206;SDS011;30950;53.086;21.576;2022-10-16T08:31:21;19.02;;;14.45;;
45206;SDS011;30950;53.086;21.576;2022-10-16T08:33:49;18.95;;;14.02;;
45206;SDS011;30950;53.086;21.576;2022-10-16T08:36:16;15.85;;;13.15;;
45206;SDS011;30950;53.086;21.576;2022-10-16T08:38:46;19.85;;;14.40;;
45206;SDS011;30950;53.086;21.576;2022-10-16T08:49:34;20.15;;;14.88;;
45206;SDS011;30950;53.086;21.576;2022-10-16T08:52:03;16.08;;;13.65;;
45206;SDS011;30950;53.086;21.576;2022-10-16T08:54:32;18.40;;;14.30;;
45206;SDS011;30950;53.086;21.576;2022-10-16T08:57:14;17.30;;;14.60;;
45206;SDS011;30950;53.086;21.576;2022-10-16T08:59:51;16.35;;;12.82;;
45206;SDS011;30950;53.086;21.576;2022-10-16T09:02:27;17.35;;;14.45;;
45206;SDS011;30950;53.086;21.576;2022-10-16T09:13:21;15.63;;;13.35;;
45206;SDS011;30950;53.086;21.576;2022-10-16T09:18:37;16.63;;;12.80;;
45206;SDS011;30950;53.086;21.576;2022-10-16T09:21:21;17.23;;;13.25;;
45206;SDS011;30950;53.086;21.576;2022-10-16T09:23:52;17.30;;;12.57;;
45206;SDS011;30950;53.086;21.576;2022-10-16T09:26:24;17.15;;;14.20;;
45206;SDS011;30950;53.086;21.576;2022-10-16T09:28:51;17.52;;;12.60;;
45206;SDS011;30950;53.086;21.576;2022-10-16T09:31:22;17.25;;;11.35;;
45206;SDS011;30950;53.086;21.576;2022-10-16T09:33:58;15.82;;;13.90;;
45206;SDS011;30950;53.086;21.576;2022-10-16T09:36:39;15.93;;;12.93;;
45206;SDS011;30950;53.086;21.576;2022-10-16T09:39:09;16.13;;;12.25;;
45206;SDS011;30950;53.086;21.576;2022-10-16T09:41:42;16.33;;;13.50;;
45206;SDS011;30950;53.086;21.576;2022-10-16T09:44:46;14.90;;;12.68;;
45206;SDS011;30950;53.086;21.576;2022-10-16T09:47:18;15.93;;;13.63;;
45206;SDS011;30950;53.086;21.576;2022-10-16T09:52:25;15.35;;;12.98;;
45206;SDS011;30950;53.086;21.576;2022-10-16T09:57:22;15.65;;;12.48;;
45206;SDS011;30950;53.086;21.576;2022-10-16T09:59:52;15.43;;;12.13;;
45206;SDS011;30950;53.086;21.576;2022-10-16T10:02:30;15.50;;;11.70;;
45206;SDS011;30950;53.086;21.576;2022-10-16T10:05:02;14.23;;;11.48;;
45206;SDS011;30950;53.086;21.576;2022-10-16T10:07:33;14.88;;;11.25;;
45206;SDS011;30950;53.086;21.576;2022-10-16T10:10:42;17.48;;;12.43;;
45206;SDS011;30950;53.086;21.576;2022-10-16T10:13:19;14.27;;;11.38;;
45206;SDS011;30950;53.086;21.576;2022-10-16T10:15:48;14.13;;;10.68;;
45206;SDS011;30950;53.086;21.576;2022-10-16T10:18:19;12.60;;;11.27;;
45206;SDS011;30950;53.086;21.576;2022-10-16T10:20:59;14.77;;;12.02;;
45206;SDS011;30950;53.086;21.576;2022-10-16T10:23:29;11.77;;;10.10;;
45206;SDS011;30950;53.086;21.576;2022-10-16T10:26:07;15.35;;;11.77;;
45206;SDS011;30950;53.086;21.576;2022-10-16T10:28:53;13.43;;;10.85;;
45206;SDS011;30950;53.086;21.576;2022-10-16T10:37:04;14.25;;;11.68;;
45206;SDS011;30950;53.086;21.576;2022-10-16T10:40:07;13.75;;;11.32;;
45206;SDS011;30950;53.086;21.576;2022-10-16T10:45:39;16.95;;;11.32;;
45206;SDS011;30950;53.086;21.576;2022-10-16T10:48:17;14.98;;;12.70;;
45206;SDS011;30950;53.086;21.576;2022-10-16T10:50:52;15.57;;;12.98;;
45206;SDS011;30950;53.086;21.576;2022-10-16T10:53:40;18.58;;;16.10;;
45206;SDS011;30950;53.086;21.576;2022-10-16T10:56:30;14.02;;;10.60;;
45206;SDS011;30950;53.086;21.576;2022-10-16T10:59:32;13.13;;;10.68;;
45206;SDS011;30950;53.086;21.576;2022-10-16T11:02:39;15.70;;;10.52;;
45206;SDS011;30950;53.086;21.576;2022-10-16T11:07:49;16.35;;;12.07;;
45206;SDS011;30950;53.086;21.576;2022-10-16T11:10:52;13.88;;;10.50;;
45206;SDS011;30950;53.086;21.576;2022-10-16T11:16:31;13.23;;;10.13;;
45206;SDS011;30950;53.086;21.576;2022-10-16T11:25:13;13.10;;;11.50;;
45206;SDS011;30950;53.086;21.576;2022-10-16T11:27:52;12.35;;;10.45;;
45206;SDS011;30950;53.086;21.576;2022-10-16T11:30:24;14.40;;;10.90;;
45206;SDS011;30950;53.086;21.576;2022-10-16T11:32:57;13.48;;;10.80;;
45206;SDS011;30950;53.086;21.576;2022-10-16T11:35:57;14.65;;;10.98;;
45206;SDS011;30950;53.086;21.576;2022-10-16T11:41:29;14.90;;;10.13;;
45206;SDS011;30950;53.086;21.576;2022-10-16T11:44:20;17.33;;;14.27;;
45206;SDS011;30950;53.086;21.576;2022-10-16T11:50:13;13.90;;;11.32;;
45206;SDS011;30950;53.086;21.576;2022-10-16T11:53:12;13.55;;;10.93;;
45206;SDS011;30950;53.086;21.576;2022-10-16T11:55:41;17.45;;;12.10;;
45206;SDS011;30950;53.086;21.576;2022-10-16T12:01:02;14.90;;;11.23;;
45206;SDS011;30950;53.086;21.576;2022-10-16T12:03:40;16.15;;;11.40;;
45206;SDS011;30950;53.086;21.576;2022-10-16T12:09:03;14.70;;;12.63;;
45206;SDS011;30950;53.086;21.576;2022-10-16T12:11:33;13.35;;;11.52;;
45206;SDS011;30950;53.086;21.576;2022-10-16T12:14:58;12.90;;;11.45;;
45206;SDS011;30950;53.086;21.576;2022-10-16T12:19:26;15.70;;;12.30;;
45206;SDS011;30950;53.086;21.576;2022-10-16T12:21:56;15.60;;;12.13;;
45206;SDS011;30950;53.086;21.576;2022-10-16T12:24:38;13.73;;;10.98;;
45206;SDS011;30950;53.086;21.576;2022-10-16T12:27:27;15.00;;;11.73;;
45206;SDS011;30950;53.086;21.576;2022-10-16T12:30:03;19.35;;;15.82;;
45206;SDS011;30950;53.086;21.576;2022-10-16T12:32:36;18.90;;;13.60;;
45206;SDS011;30950;53.086;21.576;2022-10-16T12:35:17;15.88;;;11.32;;
45206;SDS011;30950;53.086;21.576;2022-10-16T12:37:47;15.10;;;12.32;;
45206;SDS011;30950;53.086;21.576;2022-10-16T12:42:54;14.63;;;11.32;;
45206;SDS011;30950;53.086;21.576;2022-10-16T12:45:32;13.77;;;11.07;;
45206;SDS011;30950;53.086;21.576;2022-10-16T12:48:01;12.13;;;10.23;;
45206;SDS011;30950;53.086;21.576;2022-10-16T12:50:35;12.35;;;11.05;;
45206;SDS011;30950;53.086;21.576;2022-10-16T12:53:17;12.85;;;10.88;;
45206;SDS011;30950;53.086;21.576;2022-10-16T13:01:10;11.50;;;10.18;;
45206;SDS011;30950;53.086;21.576;2022-10-16T13:18:25;15.15;;;11.98;;
45206;SDS011;30950;53.086;21.576;2022-10-16T13:23:50;13.73;;;11.63;;
45206;SDS011;30950;53.086;21.576;2022-10-16T13:29:34;12.85;;;11.55;;
45206;SDS011;30950;53.086;21.576;2022-10-16T13:32:06;14.23;;;11.90;;
45206;SDS011;30950;53.086;21.576;2022-10-16T13:34:43;15.82;;;12.15;;
45206;SDS011;30950;53.086;21.576;2022-10-16T13:37:22;18.88;;;13.20;;
45206;SDS011;30950;53.086;21.576;2022-10-16T13:40:02;17.98;;;12.25;;
45206;SDS011;30950;53.086;21.576;2022-10-16T13:42:45;15.45;;;12.25;;
45206;SDS011;30950;53.086;21.576;2022-10-16T13:45:19;15.07;;;12.50;;
45206;SDS011;30950;53.086;21.576;2022-10-16T13:47:48;13.88;;;12.18;;
45206;SDS011;30950;53.086;21.576;2022-10-16T13:50:17;13.60;;;11.85;;
45206;SDS011;30950;53.086;21.576;2022-10-16T13:52:45;14.02;;;11.00;;
45206;SDS011;30950;53.086;21.576;2022-10-16T13:55:16;16.35;;;12.35;;
45206;SDS011;30950;53.086;21.576;2022-10-16T13:57:44;14.32;;;11.65;;
45206;SDS011;30950;53.086;21.576;2022-10-16T14:00:22;14.60;;;12.07;;
45206;SDS011;30950;53.086;21.576;2022-10-16T14:02:58;17.63;;;13.32;;
45206;SDS011;30950;53.086;21.576;2022-10-16T14:05:33;18.85;;;13.68;;
45206;SDS011;30950;53.086;21.576;2022-10-16T14:08:01;15.90;;;12.95;;
45206;SDS011;30950;53.086;21.576;2022-10-16T14:10:39;13.68;;;11.45;;
45206;SDS011;30950;53.086;21.576;2022-10-16T14:13:07;15.77;;;12.65;;
45206;SDS011;30950;53.086;21.576;2022-10-16T14:15:40;15.40;;;11.00;;
45206;SDS011;30950;53.086;21.576;2022-10-16T14:18:18;14.27;;;11.57;;
45206;SDS011;30950;53.086;21.576;2022-10-16T14:20:48;12.95;;;11.65;;
45206;SDS011;30950;53.086;21.576;2022-10-16T14:23:21;13.50;;;11.80;;
45206;SDS011;30950;53.086;21.576;2022-10-16T14:25:50;16.02;;;12.30;;
45206;SDS011;30950;53.086;21.576;2022-10-16T14:28:18;15.85;;;13.98;;
45206;SDS011;30950;53.086;21.576;2022-10-16T14:30:55;18.27;;;14.20;;
45206;SDS011;30950;53.086;21.576;2022-10-16T14:36:18;16.65;;;14.50;;
45206;SDS011;30950;53.086;21.576;2022-10-16T14:38:49;14.18;;;12.55;;
45206;SDS011;30950;53.086;21.576;2022-10-16T14:41:20;15.05;;;13.15;;
45206;SDS011;30950;53.086;21.576;2022-10-16T14:43:53;16.25;;;13.07;;
45206;SDS011;30950;53.086;21.576;2022-10-16T14:46:28;22.83;;;16.95;;
45206;SDS011;30950;53.086;21.576;2022-10-16T14:51:38;13.88;;;12.05;;
45206;SDS011;30950;53.086;21.576;2022-10-16T14:54:11;16.42;;;13.52;;
45206;SDS011;30950;53.086;21.576;2022-10-16T14:56:42;15.70;;;12.77;;
45206;SDS011;30950;53.086;21.576;2022-10-16T15:01:57;19.52;;;13.32;;
45206;SDS011;30950;53.086;21.576;2022-10-16T15:04:24;14.75;;;12.57;;
45206;SDS011;30950;53.086;21.576;2022-10-16T15:06:52;16.27;;;11.18;;
45206;SDS011;30950;53.086;21.576;2022-10-16T15:09:20;14.43;;;11.32;;
45206;SDS011;30950;53.086;21.576;2022-10-16T15:11:48;19.63;;;13.50;;
45206;SDS011;30950;53.086;21.576;2022-10-16T15:14:15;19.13;;;13.20;;
45206;SDS011;30950;53.086;21.576;2022-10-16T15:16:43;16.20;;;12.93;;
45206;SDS011;30950;53.086;21.576;2022-10-16T15:19:12;16.13;;;12.70;;
45206;SDS011;30950;53.086;21.576;2022-10-16T15:21:39;17.40;;;13.85;;
45206;SDS011;30950;53.086;21.576;2022-10-16T15:24:13;16.92;;;12.75;;
45206;SDS011;30950;53.086;21.576;2022-10-16T15:26:47;18.35;;;12.70;;
45206;SDS011;30950;53.086;21.576;2022-10-16T15:29:16;16.48;;;14.25;;
45206;SDS011;30950;53.086;21.576;2022-10-16T15:31:44;17.52;;;12.30;;
45206;SDS011;30950;53.086;21.576;2022-10-16T15:34:14;15.90;;;13.32;;
45206;SDS011;30950;53.086;21.576;2022-10-16T15:36:41;15.38;;;13.02;;
45206;SDS011;30950;53.086;21.576;2022-10-16T15:39:20;18.75;;;13.18;;
45206;SDS011;30950;53.086;21.576;2022-10-16T15:41:48;16.55;;;13.50;;
45206;SDS011;30950;53.086;21.576;2022-10-16T15:44:18;18.10;;;13.55;;
45206;SDS011;30950;53.086;21.576;2022-10-16T15:46:47;18.48;;;13.65;;
45206;SDS011;30950;53.086;21.576;2022-10-16T15:49:16;19.83;;;13.20;;
45206;SDS011;30950;53.086;21.576;2022-10-16T15:51:44;17.05;;;13.23;;
45206;SDS011;30950;53.086;21.576;2022-10-16T15:54:12;16.25;;;13.63;;
45206;SDS011;30950;53.086;21.576;2022-10-16T15:56:40;19.08;;;14.27;;
45206;SDS011;30950;53.086;21.576;2022-10-16T15:59:07;15.82;;;12.88;;
45206;SDS011;30950;53.086;21.576;2022-10-16T16:01:35;18.02;;;13.82;;
45206;SDS011;30950;53.086;21.576;2022-10-16T16:04:03;17.45;;;14.52;;
45206;SDS011;30950;53.086;21.576;2022-10-16T16:06:46;21.02;;;15.30;;
45206;SDS011;30950;53.086;21.576;2022-10-16T16:09:14;19.85;;;15.75;;
45206;SDS011;30950;53.086;21.576;2022-10-16T16:11:42;21.67;;;16.05;;
45206;SDS011;30950;53.086;21.576;2022-10-16T16:14:10;19.13;;;15.82;;
45206;SDS011;30950;53.086;21.576;2022-10-16T16:16:40;19.25;;;16.35;;
45206;SDS011;30950;53.086;21.576;2022-10-16T16:19:12;19.88;;;16.10;;
45206;SDS011;30950;53.086;21.576;2022-10-16T16:21:40;19.73;;;16.10;;
45206;SDS011;30950;53.086;21.576;2022-10-16T16:24:07;29.67;;;22.85;;
45206;SDS011;30950;53.086;21.576;2022-10-16T16:26:35;18.60;;;15.45;;
45206;SDS011;30950;53.086;21.576;2022-10-16T16:29:08;23.40;;;16.60;;